sensor_id;sensor_type;location;lat;lon;timestamp;P1;durP1;ratioP1;P2;durP2;ratioP2
15258;SDS011;34462;51.368;12.364;2023-05-07T00:02:07;11.77;;;9.30;;
15258;SDS011;34462;51.368;12.364;2023-05-07T00:04:36;10.33;;;8.63;;
15258;SDS011;34462;51.368;12.364;2023-05-07T00:07:05;11.67;;;9.03;;
15258;SDS011;34462;51.368;12.364;2023-05-07T00:09:33;9.97;;;8.43;;
15258;SDS011;34462;51.368;12.364;2023-05-07T00:12:01;9.90;;;8.80;;
15258;SDS011;34462;51.368;12.364;2023-05-07T00:14:29;10.90;;;9.40;;
15258;SDS011;34462;51.368;12.364;2023-05-07T00:16:58;10.10;;;9.10;;
15258;SDS011;34462;51.368;12.364;2023-05-07T00:19:27;10.17;;;9.13;;
15258;SDS011;34462;51.368;12.364;2023-05-07T00:21:55;10.67;;;9.07;;
15258;SDS011;34462;51.368;12.364;2023-05-07T00:24:24;10.07;;;8.13;;
15258;SDS011;34462;51.368;12.364;2023-05-07T00:26:52;9.63;;;8.63;;
15258;SDS011;34462;51.368;12.364;2023-05-07T00:29:20;9.63;;;8.20;;
15258;SDS011;34462;51.368;12.364;2023-05-07T00:31:49;10.10;;;8.27;;
15258;SDS011;34462;51.368;12.364;2023-05-07T00:34:18;10.67;;;8.87;;
15258;SDS011;34462;51.368;12.364;2023-05-07T00:36:48;11.17;;;8.47;;
15258;SDS011;34462;51.368;12.364;2023-05-07T00:39:16;11.73;;;8.70;;
15258;SDS011;34462;51.368;12.364;2023-05-07T00:41:44;10.73;;;9.60;;
15258;SDS011;34462;51.368;12.364;2023-05-07T00:44:13;10.43;;;9.20;;
15258;SDS011;34462;51.368;12.364;2023-05-07T00:46:41;10.10;;;8.57;;
15258;SDS011;34462;51.368;12.364;2023-05-07T00:49:11;10.60;;;9.17;;
15258;SDS011;34462;51.368;12.364;2023-05-07T00:51:39;9.53;;;8.43;;
15258;SDS011;34462;51.368;12.364;2023-05-07T00:54:08;9.90;;;8.87;;
15258;SDS011;34462;51.368;12.364;2023-05-07T00:56:38;10.80;;;8.73;;
15258;SDS011;34462;51.368;12.364;2023-05-07T00:59:07;10.07;;;9.07;;
15258;SDS011;34462;51.368;12.364;2023-05-07T01:01:35;10.70;;;9.07;;
15258;SDS011;34462;51.368;12.364;2023-05-07T01:04:04;12.17;;;10.00;;
15258;SDS011;34462;51.368;12.364;2023-05-07T01:06:32;10.87;;;9.77;;
15258;SDS011;34462;51.368;12.364;2023-05-07T01:09:01;11.53;;;10.27;;
15258;SDS011;34462;51.368;12.364;2023-05-07T01:11:32;11.27;;;10.00;;
15258;SDS011;34462;51.368;12.364;2023-05-07T01:14:00;10.80;;;9.70;;
15258;SDS011;34462;51.368;12.364;2023-05-07T01:16:29;11.20;;;9.73;;
15258;SDS011;34462;51.368;12.364;2023-05-07T01:18:59;11.23;;;9.90;;
15258;SDS011;34462;51.368;12.364;2023-05-07T01:21:28;12.37;;;10.00;;
15258;SDS011;34462;51.368;12.364;2023-05-07T01:24:02;11.97;;;9.93;;
15258;SDS011;34462;51.368;12.364;2023-05-07T01:26:32;11.50;;;9.93;;
15258;SDS011;34462;51.368;12.364;2023-05-07T01:29:00;12.03;;;10.67;;
15258;SDS011;34462;51.368;12.364;2023-05-07T01:31:28;12.10;;;10.80;;
15258;SDS011;34462;51.368;12.364;2023-05-07T01:33:57;12.07;;;10.27;;
15258;SDS011;34462;51.368;12.364;2023-05-07T01:36:29;11.90;;;10.60;;
15258;SDS011;34462;51.368;12.364;2023-05-07T01:38:58;12.50;;;11.10;;
15258;SDS011;34462;51.368;12.364;2023-05-07T01:41:29;12.40;;;10.80;;
15258;SDS011;34462;51.368;12.364;2023-05-07T01:43:57;13.53;;;11.73;;
15258;SDS011;34462;51.368;12.364;2023-05-07T01:46:27;13.37;;;11.73;;
15258;SDS011;34462;51.368;12.364;2023-05-07T01:48:56;16.67;;;12.00;;
15258;SDS011;34462;51.368;12.364;2023-05-07T01:51:24;15.90;;;13.13;;
15258;SDS011;34462;51.368;12.364;2023-05-07T01:53:53;16.20;;;13.07;;
15258;SDS011;34462;51.368;12.364;2023-05-07T01:56:21;14.20;;;12.70;;
15258;SDS011;34462;51.368;12.364;2023-05-07T01:58:51;16.47;;;13.50;;
15258;SDS011;34462;51.368;12.364;2023-05-07T02:01:20;15.43;;;13.27;;
15258;SDS011;34462;51.368;12.364;2023-05-07T02:03:48;14.53;;;12.07;;
15258;SDS011;34462;51.368;12.364;2023-05-07T02:06:17;14.37;;;12.60;;
15258;SDS011;34462;51.368;12.364;2023-05-07T02:08:45;15.40;;;13.63;;
15258;SDS011;34462;51.368;12.364;2023-05-07T02:11:14;14.40;;;12.87;;
15258;SDS011;34462;51.368;12.364;2023-05-07T02:13:42;15.70;;;13.77;;
15258;SDS011;34462;51.368;12.364;2023-05-07T02:16:12;14.77;;;13.20;;
15258;SDS011;34462;51.368;12.364;2023-05-07T02:18:40;16.63;;;13.30;;
15258;SDS011;34462;51.368;12.364;2023-05-07T02:21:09;15.60;;;13.80;;
15258;SDS011;34462;51.368;12.364;2023-05-07T02:23:37;15.17;;;13.57;;
15258;SDS011;34462;51.368;12.364;2023-05-07T02:26:05;14.87;;;13.07;;
15258;SDS011;34462;51.368;12.364;2023-05-07T02:28:33;14.93;;;13.20;;
15258;SDS011;34462;51.368;12.364;2023-05-07T02:31:02;17.27;;;13.77;;
15258;SDS011;34462;51.368;12.364;2023-05-07T02:33:32;15.17;;;13.50;;
15258;SDS011;34462;51.368;12.364;2023-05-07T02:36:07;15.80;;;13.40;;
15258;SDS011;34462;51.368;12.364;2023-05-07T02:38:37;15.17;;;13.50;;
15258;SDS011;34462;51.368;12.364;2023-05-07T02:41:05;14.77;;;13.13;;
15258;SDS011;34462;51.368;12.364;2023-05-07T02:43:33;16.13;;;14.43;;
15258;SDS011;34462;51.368;12.364;2023-05-07T02:46:02;15.60;;;14.00;;
15258;SDS011;34462;51.368;12.364;2023-05-07T02:48:33;17.17;;;14.43;;
15258;SDS011;34462;51.368;12.364;2023-05-07T02:51:02;16.37;;;14.67;;
15258;SDS011;34462;51.368;12.364;2023-05-07T02:53:31;15.53;;;14.00;;
15258;SDS011;34462;51.368;12.364;2023-05-07T02:56:00;15.63;;;13.97;;
15258;SDS011;34462;51.368;12.364;2023-05-07T02:58:29;16.27;;;14.60;;
15258;SDS011;34462;51.368;12.364;2023-05-07T03:00:57;15.63;;;13.97;;
15258;SDS011;34462;51.368;12.364;2023-05-07T03:03:26;14.90;;;13.27;;
15258;SDS011;34462;51.368;12.364;2023-05-07T03:05:55;16.57;;;14.77;;
15258;SDS011;34462;51.368;12.364;2023-05-07T03:08:23;14.93;;;13.43;;
15258;SDS011;34462;51.368;12.364;2023-05-07T03:10:52;15.50;;;13.90;;
15258;SDS011;34462;51.368;12.364;2023-05-07T03:13:20;15.80;;;13.87;;
15258;SDS011;34462;51.368;12.364;2023-05-07T03:15:49;14.63;;;13.10;;
15258;SDS011;34462;51.368;12.364;2023-05-07T03:18:17;15.90;;;13.40;;
15258;SDS011;34462;51.368;12.364;2023-05-07T03:20:45;15.67;;;14.07;;
15258;SDS011;34462;51.368;12.364;2023-05-07T03:23:16;14.70;;;13.07;;
15258;SDS011;34462;51.368;12.364;2023-05-07T03:25:45;14.27;;;12.77;;
15258;SDS011;34462;51.368;12.364;2023-05-07T03:28:13;14.57;;;12.87;;
15258;SDS011;34462;51.368;12.364;2023-05-07T03:30:41;15.70;;;13.27;;
15258;SDS011;34462;51.368;12.364;2023-05-07T03:33:09;14.67;;;13.13;;
15258;SDS011;34462;51.368;12.364;2023-05-07T03:35:37;14.57;;;13.07;;
15258;SDS011;34462;51.368;12.364;2023-05-07T03:38:05;14.83;;;13.13;;
15258;SDS011;34462;51.368;12.364;2023-05-07T03:40:36;16.50;;;13.93;;
15258;SDS011;34462;51.368;12.364;2023-05-07T03:43:04;14.43;;;12.97;;
15258;SDS011;34462;51.368;12.364;2023-05-07T03:45:32;14.87;;;13.00;;
15258;SDS011;34462;51.368;12.364;2023-05-07T03:48:00;15.37;;;13.50;;
15258;SDS011;34462;51.368;12.364;2023-05-07T03:50:28;15.07;;;13.47;;
15258;SDS011;34462;51.368;12.364;2023-05-07T03:52:56;15.93;;;13.53;;
15258;SDS011;34462;51.368;12.364;2023-05-07T03:55:25;16.10;;;14.20;;
15258;SDS011;34462;51.368;12.364;2023-05-07T03:57:54;14.90;;;12.63;;
15258;SDS011;34462;51.368;12.364;2023-05-07T04:00:22;14.97;;;12.90;;
15258;SDS011;34462;51.368;12.364;2023-05-07T04:02:51;15.83;;;13.47;;
15258;SDS011;34462;51.368;12.364;2023-05-07T04:05:19;16.97;;;13.57;;
15258;SDS011;34462;51.368;12.364;2023-05-07T04:07:47;16.03;;;13.43;;
15258;SDS011;34462;51.368;12.364;2023-05-07T04:10:15;16.13;;;13.47;;
15258;SDS011;34462;51.368;12.364;2023-05-07T04:12:43;16.97;;;13.97;;
15258;SDS011;34462;51.368;12.364;2023-05-07T04:15:13;16.57;;;13.87;;
15258;SDS011;34462;51.368;12.364;2023-05-07T04:17:41;16.23;;;13.50;;
15258;SDS011;34462;51.368;12.364;2023-05-07T04:20:10;16.17;;;14.10;;
15258;SDS011;34462;51.368;12.364;2023-05-07T04:22:42;16.40;;;13.97;;
15258;SDS011;34462;51.368;12.364;2023-05-07T04:25:11;15.67;;;14.00;;
15258;SDS011;34462;51.368;12.364;2023-05-07T04:27:39;15.80;;;13.63;;
15258;SDS011;34462;51.368;12.364;2023-05-07T04:30:07;15.37;;;13.77;;
15258;SDS011;34462;51.368;12.364;2023-05-07T04:32:38;15.87;;;14.10;;
15258;SDS011;34462;51.368;12.364;2023-05-07T04:35:07;16.17;;;13.43;;
15258;SDS011;34462;51.368;12.364;2023-05-07T04:37:35;16.30;;;13.33;;
15258;SDS011;34462;51.368;12.364;2023-05-07T04:40:03;16.47;;;13.67;;
15258;SDS011;34462;51.368;12.364;2023-05-07T04:42:34;15.63;;;12.93;;
15258;SDS011;34462;51.368;12.364;2023-05-07T04:45:02;15.27;;;13.20;;
15258;SDS011;34462;51.368;12.364;2023-05-07T04:47:31;14.73;;;12.90;;
15258;SDS011;34462;51.368;12.364;2023-05-07T04:50:01;14.67;;;13.07;;
15258;SDS011;34462;51.368;12.364;2023-05-07T04:52:29;15.10;;;12.97;;
15258;SDS011;34462;51.368;12.364;2023-05-07T04:57:27;13.03;;;11.73;;
15258;SDS011;34462;51.368;12.364;2023-05-07T04:59:55;14.63;;;12.73;;
15258;SDS011;34462;51.368;12.364;2023-05-07T05:02:24;15.13;;;12.40;;
15258;SDS011;34462;51.368;12.364;2023-05-07T05:04:52;12.80;;;11.40;;
15258;SDS011;34462;51.368;12.364;2023-05-07T05:07:22;13.73;;;12.20;;
15258;SDS011;34462;51.368;12.364;2023-05-07T05:09:50;12.80;;;11.37;;
15258;SDS011;34462;51.368;12.364;2023-05-07T05:12:18;12.90;;;11.60;;
15258;SDS011;34462;51.368;12.364;2023-05-07T05:14:46;13.73;;;11.83;;
15258;SDS011;34462;51.368;12.364;2023-05-07T05:17:14;14.63;;;12.47;;
15258;SDS011;34462;51.368;12.364;2023-05-07T05:19:42;13.50;;;12.10;;
15258;SDS011;34462;51.368;12.364;2023-05-07T05:22:10;13.40;;;11.73;;
15258;SDS011;34462;51.368;12.364;2023-05-07T05:24:40;13.60;;;12.00;;
15258;SDS011;34462;51.368;12.364;2023-05-07T05:27:08;13.37;;;11.77;;
15258;SDS011;34462;51.368;12.364;2023-05-07T05:29:36;12.77;;;11.20;;
15258;SDS011;34462;51.368;12.364;2023-05-07T05:32:04;13.87;;;11.77;;
15258;SDS011;34462;51.368;12.364;2023-05-07T05:34:32;12.93;;;11.57;;
15258;SDS011;34462;51.368;12.364;2023-05-07T05:37:01;11.60;;;10.40;;
15258;SDS011;34462;51.368;12.364;2023-05-07T05:39:29;13.03;;;11.07;;
15258;SDS011;34462;51.368;12.364;2023-05-07T05:41:58;12.33;;;11.03;;
15258;SDS011;34462;51.368;12.364;2023-05-07T05:44:26;13.13;;;11.40;;
15258;SDS011;34462;51.368;12.364;2023-05-07T05:46:55;12.60;;;10.90;;
15258;SDS011;34462;51.368;12.364;2023-05-07T05:49:25;11.13;;;10.03;;
15258;SDS011;34462;51.368;12.364;2023-05-07T05:51:53;11.50;;;9.83;;
15258;SDS011;34462;51.368;12.364;2023-05-07T05:54:21;10.97;;;9.83;;
15258;SDS011;34462;51.368;12.364;2023-05-07T05:56:50;11.50;;;9.93;;
15258;SDS011;34462;51.368;12.364;2023-05-07T05:59:19;9.80;;;8.80;;
15258;SDS011;34462;51.368;12.364;2023-05-07T06:01:47;10.73;;;9.63;;
15258;SDS011;34462;51.368;12.364;2023-05-07T06:04:16;11.57;;;9.40;;
15258;SDS011;34462;51.368;12.364;2023-05-07T06:06:44;10.27;;;9.17;;
15258;SDS011;34462;51.368;12.364;2023-05-07T06:09:12;10.70;;;9.40;;
15258;SDS011;34462;51.368;12.364;2023-05-07T06:11:40;10.00;;;8.87;;
15258;SDS011;34462;51.368;12.364;2023-05-07T06:14:08;11.77;;;10.57;;
15258;SDS011;34462;51.368;12.364;2023-05-07T06:16:38;12.67;;;10.03;;
15258;SDS011;34462;51.368;12.364;2023-05-07T06:19:06;11.03;;;9.63;;
15258;SDS011;34462;51.368;12.364;2023-05-07T06:21:34;11.57;;;10.40;;
15258;SDS011;34462;51.368;12.364;2023-05-07T06:24:02;11.07;;;9.97;;
15258;SDS011;34462;51.368;12.364;2023-05-07T06:26:31;11.73;;;10.07;;
15258;SDS011;34462;51.368;12.364;2023-05-07T06:28:59;11.17;;;10.07;;
15258;SDS011;34462;51.368;12.364;2023-05-07T06:31:29;11.10;;;9.97;;
15258;SDS011;34462;51.368;12.364;2023-05-07T06:34:00;11.93;;;10.53;;
15258;SDS011;34462;51.368;12.364;2023-05-07T06:36:28;11.63;;;10.43;;
15258;SDS011;34462;51.368;12.364;2023-05-07T06:38:56;11.60;;;10.33;;
15258;SDS011;34462;51.368;12.364;2023-05-07T06:41:24;11.43;;;10.27;;
15258;SDS011;34462;51.368;12.364;2023-05-07T06:43:53;11.97;;;10.77;;
15258;SDS011;34462;51.368;12.364;2023-05-07T06:46:21;11.97;;;10.23;;
15258;SDS011;34462;51.368;12.364;2023-05-07T06:48:49;12.27;;;10.97;;
15258;SDS011;34462;51.368;12.364;2023-05-07T06:51:19;12.83;;;10.50;;
15258;SDS011;34462;51.368;12.364;2023-05-07T06:53:47;11.20;;;10.00;;
15258;SDS011;34462;51.368;12.364;2023-05-07T06:56:16;10.63;;;9.57;;
15258;SDS011;34462;51.368;12.364;2023-05-07T06:58:44;10.90;;;9.53;;
15258;SDS011;34462;51.368;12.364;2023-05-07T07:01:12;11.17;;;10.07;;
15258;SDS011;34462;51.368;12.364;2023-05-07T07:03:41;11.40;;;10.30;;
15258;SDS011;34462;51.368;12.364;2023-05-07T07:06:09;10.60;;;9.50;;
15258;SDS011;34462;51.368;12.364;2023-05-07T07:08:38;12.07;;;10.10;;
15258;SDS011;34462;51.368;12.364;2023-05-07T07:11:07;11.13;;;9.97;;
15258;SDS011;34462;51.368;12.364;2023-05-07T07:13:37;9.83;;;8.83;;
15258;SDS011;34462;51.368;12.364;2023-05-07T07:16:06;10.10;;;9.10;;
15258;SDS011;34462;51.368;12.364;2023-05-07T07:18:34;9.30;;;8.40;;
15258;SDS011;34462;51.368;12.364;2023-05-07T07:21:02;9.23;;;8.33;;
15258;SDS011;34462;51.368;12.364;2023-05-07T07:23:31;9.60;;;8.60;;
15258;SDS011;34462;51.368;12.364;2023-05-07T07:26:01;9.20;;;8.23;;
15258;SDS011;34462;51.368;12.364;2023-05-07T07:28:29;8.77;;;7.97;;
15258;SDS011;34462;51.368;12.364;2023-05-07T07:30:57;8.50;;;7.60;;
15258;SDS011;34462;51.368;12.364;2023-05-07T07:33:25;8.53;;;7.73;;
15258;SDS011;34462;51.368;12.364;2023-05-07T07:35:55;8.40;;;7.60;;
15258;SDS011;34462;51.368;12.364;2023-05-07T07:38:23;7.67;;;6.97;;
15258;SDS011;34462;51.368;12.364;2023-05-07T07:40:51;8.23;;;7.43;;
15258;SDS011;34462;51.368;12.364;2023-05-07T07:43:21;8.27;;;7.40;;
15258;SDS011;34462;51.368;12.364;2023-05-07T07:45:49;8.55;;;7.75;;
15258;SDS011;34462;51.368;12.364;2023-05-07T07:48:17;7.25;;;6.63;;
15258;SDS011;34462;51.368;12.364;2023-05-07T07:50:48;7.43;;;6.73;;
15258;SDS011;34462;51.368;12.364;2023-05-07T07:53:17;8.00;;;7.20;;
15258;SDS011;34462;51.368;12.364;2023-05-07T07:55:45;7.53;;;6.87;;
15258;SDS011;34462;51.368;12.364;2023-05-07T07:58:14;7.50;;;6.80;;
15258;SDS011;34462;51.368;12.364;2023-05-07T08:00:43;7.30;;;6.50;;
15258;SDS011;34462;51.368;12.364;2023-05-07T08:03:11;7.03;;;6.33;;
15258;SDS011;34462;51.368;12.364;2023-05-07T08:05:40;7.57;;;6.90;;
15258;SDS011;34462;51.368;12.364;2023-05-07T08:08:08;6.83;;;6.23;;
15258;SDS011;34462;51.368;12.364;2023-05-07T08:10:37;6.80;;;6.10;;
15258;SDS011;34462;51.368;12.364;2023-05-07T08:13:05;6.77;;;6.17;;
15258;SDS011;34462;51.368;12.364;2023-05-07T08:15:34;8.07;;;6.03;;
15258;SDS011;34462;51.368;12.364;2023-05-07T08:18:03;6.43;;;5.90;;
15258;SDS011;34462;51.368;12.364;2023-05-07T08:20:32;6.20;;;5.60;;
15258;SDS011;34462;51.368;12.364;2023-05-07T08:23:05;6.23;;;5.63;;
15258;SDS011;34462;51.368;12.364;2023-05-07T08:25:34;6.03;;;5.53;;
15258;SDS011;34462;51.368;12.364;2023-05-07T08:28:03;6.00;;;5.50;;
15258;SDS011;34462;51.368;12.364;2023-05-07T08:30:34;5.80;;;5.30;;
15258;SDS011;34462;51.368;12.364;2023-05-07T08:33:04;6.07;;;5.57;;
15258;SDS011;34462;51.368;12.364;2023-05-07T08:35:32;5.93;;;5.43;;
15258;SDS011;34462;51.368;12.364;2023-05-07T08:38:01;6.03;;;5.43;;
15258;SDS011;34462;51.368;12.364;2023-05-07T08:40:29;5.47;;;5.07;;
15258;SDS011;34462;51.368;12.364;2023-05-07T08:43:04;5.87;;;5.37;;
15258;SDS011;34462;51.368;12.364;2023-05-07T08:45:34;6.00;;;5.50;;
15258;SDS011;34462;51.368;12.364;2023-05-07T08:48:03;6.00;;;5.50;;
15258;SDS011;34462;51.368;12.364;2023-05-07T08:50:41;6.37;;;5.70;;
15258;SDS011;34462;51.368;12.364;2023-05-07T08:53:09;5.80;;;5.30;;
15258;SDS011;34462;51.368;12.364;2023-05-07T08:55:38;5.97;;;5.47;;
15258;SDS011;34462;51.368;12.364;2023-05-07T08:58:06;6.47;;;5.90;;
15258;SDS011;34462;51.368;12.364;2023-05-07T09:00:34;6.77;;;6.17;;
15258;SDS011;34462;51.368;12.364;2023-05-07T09:03:07;6.80;;;6.20;;
15258;SDS011;34462;51.368;12.364;2023-05-07T09:05:38;6.90;;;6.30;;
15258;SDS011;34462;51.368;12.364;2023-05-07T09:08:08;6.50;;;5.90;;
15258;SDS011;34462;51.368;12.364;2023-05-07T09:10:36;6.67;;;6.10;;
15258;SDS011;34462;51.368;12.364;2023-05-07T09:13:04;6.53;;;6.00;;
15258;SDS011;34462;51.368;12.364;2023-05-07T09:15:33;7.40;;;6.70;;
15258;SDS011;34462;51.368;12.364;2023-05-07T09:18:01;7.23;;;6.20;;
15258;SDS011;34462;51.368;12.364;2023-05-07T09:20:31;7.00;;;6.40;;
15258;SDS011;34462;51.368;12.364;2023-05-07T09:22:59;7.43;;;6.73;;
15258;SDS011;34462;51.368;12.364;2023-05-07T09:25:27;6.93;;;6.33;;
15258;SDS011;34462;51.368;12.364;2023-05-07T09:27:58;7.10;;;6.50;;
15258;SDS011;34462;51.368;12.364;2023-05-07T09:30:28;7.83;;;6.20;;
15258;SDS011;34462;51.368;12.364;2023-05-07T09:32:57;7.00;;;6.40;;
15258;SDS011;34462;51.368;12.364;2023-05-07T09:35:27;7.20;;;6.60;;
15258;SDS011;34462;51.368;12.364;2023-05-07T09:37:57;7.00;;;6.40;;
15258;SDS011;34462;51.368;12.364;2023-05-07T09:40:30;7.83;;;7.13;;
15258;SDS011;34462;51.368;12.364;2023-05-07T09:43:08;7.63;;;6.93;;
15258;SDS011;34462;51.368;12.364;2023-05-07T09:45:38;7.77;;;7.07;;
15258;SDS011;34462;51.368;12.364;2023-05-07T09:48:06;7.40;;;6.70;;
15258;SDS011;34462;51.368;12.364;2023-05-07T09:50:36;6.73;;;6.10;;
15258;SDS011;34462;51.368;12.364;2023-05-07T09:53:17;7.30;;;6.60;;
15258;SDS011;34462;51.368;12.364;2023-05-07T09:55:46;7.10;;;6.50;;
15258;SDS011;34462;51.368;12.364;2023-05-07T09:58:15;7.07;;;6.37;;
15258;SDS011;34462;51.368;12.364;2023-05-07T10:00:46;6.43;;;5.93;;
15258;SDS011;34462;51.368;12.364;2023-05-07T10:03:16;6.70;;;6.20;;
15258;SDS011;34462;51.368;12.364;2023-05-07T10:05:47;6.97;;;6.27;;
15258;SDS011;34462;51.368;12.364;2023-05-07T10:08:19;6.80;;;6.20;;
15258;SDS011;34462;51.368;12.364;2023-05-07T10:10:48;6.43;;;5.93;;
15258;SDS011;34462;51.368;12.364;2023-05-07T10:13:17;6.30;;;5.70;;
15258;SDS011;34462;51.368;12.364;2023-05-07T10:15:47;7.30;;;5.87;;
15258;SDS011;34462;51.368;12.364;2023-05-07T10:18:16;7.97;;;6.03;;
15258;SDS011;34462;51.368;12.364;2023-05-07T10:20:48;6.10;;;5.60;;
15258;SDS011;34462;51.368;12.364;2023-05-07T10:23:23;7.93;;;5.80;;
15258;SDS011;34462;51.368;12.364;2023-05-07T10:25:53;5.97;;;5.47;;
15258;SDS011;34462;51.368;12.364;2023-05-07T10:28:26;6.10;;;5.60;;
15258;SDS011;34462;51.368;12.364;2023-05-07T10:31:03;5.77;;;5.27;;
15258;SDS011;34462;51.368;12.364;2023-05-07T10:33:51;6.20;;;5.60;;
15258;SDS011;34462;51.368;12.364;2023-05-07T10:36:22;6.10;;;5.50;;
15258;SDS011;34462;51.368;12.364;2023-05-07T10:38:54;5.93;;;5.40;;
15258;SDS011;34462;51.368;12.364;2023-05-07T10:41:22;5.07;;;4.57;;
15258;SDS011;34462;51.368;12.364;2023-05-07T10:43:51;5.10;;;4.60;;
15258;SDS011;34462;51.368;12.364;2023-05-07T10:46:20;5.72;;;4.72;;
15258;SDS011;34462;51.368;12.364;2023-05-07T10:49:08;5.55;;;5.05;;
15258;SDS011;34462;51.368;12.364;2023-05-07T10:51:38;6.67;;;5.97;;
15258;SDS011;34462;51.368;12.364;2023-05-07T10:54:21;6.10;;;5.60;;
15258;SDS011;34462;51.368;12.364;2023-05-07T10:56:51;6.70;;;6.10;;
15258;SDS011;34462;51.368;12.364;2023-05-07T10:59:32;7.15;;;6.45;;
15258;SDS011;34462;51.368;12.364;2023-05-07T11:02:07;6.87;;;6.17;;
15258;SDS011;34462;51.368;12.364;2023-05-07T11:04:37;8.27;;;6.53;;
15258;SDS011;34462;51.368;12.364;2023-05-07T11:07:26;7.97;;;7.27;;
15258;SDS011;34462;51.368;12.364;2023-05-07T11:09:59;7.35;;;6.70;;
15258;SDS011;34462;51.368;12.364;2023-05-07T11:12:47;7.47;;;6.88;;
15258;SDS011;34462;51.368;12.364;2023-05-07T11:18:16;7.05;;;6.45;;
15258;SDS011;34462;51.368;12.364;2023-05-07T11:20:52;7.50;;;6.80;;
15258;SDS011;34462;51.368;12.364;2023-05-07T11:26:45;6.90;;;6.30;;
15258;SDS011;34462;51.368;12.364;2023-05-07T11:29:16;6.38;;;5.72;;
15258;SDS011;34462;51.368;12.364;2023-05-07T11:31:48;6.30;;;5.80;;
15258;SDS011;34462;51.368;12.364;2023-05-07T11:34:21;5.88;;;5.38;;
15258;SDS011;34462;51.368;12.364;2023-05-07T11:36:51;6.20;;;5.70;;
15258;SDS011;34462;51.368;12.364;2023-05-07T11:39:24;6.47;;;5.70;;
15258;SDS011;34462;51.368;12.364;2023-05-07T11:41:59;6.20;;;5.70;;
15258;SDS011;34462;51.368;12.364;2023-05-07T11:44:40;6.20;;;5.70;;
15258;SDS011;34462;51.368;12.364;2023-05-07T11:47:09;6.18;;;5.68;;
15258;SDS011;34462;51.368;12.364;2023-05-07T11:49:38;5.80;;;5.30;;
15258;SDS011;34462;51.368;12.364;2023-05-07T11:52:06;6.22;;;5.60;;
15258;SDS011;34462;51.368;12.364;2023-05-07T11:54:35;6.90;;;6.30;;
15258;SDS011;34462;51.368;12.364;2023-05-07T11:57:06;6.22;;;5.72;;
15258;SDS011;34462;51.368;12.364;2023-05-07T11:59:41;6.53;;;5.93;;
15258;SDS011;34462;51.368;12.364;2023-05-07T12:02:10;6.72;;;6.13;;
15258;SDS011;34462;51.368;12.364;2023-05-07T12:04:42;6.65;;;6.05;;
15258;SDS011;34462;51.368;12.364;2023-05-07T12:07:11;7.53;;;6.82;;
15258;SDS011;34462;51.368;12.364;2023-05-07T12:09:40;6.95;;;6.35;;
15258;SDS011;34462;51.368;12.364;2023-05-07T12:12:10;6.88;;;6.28;;
15258;SDS011;34462;51.368;12.364;2023-05-07T12:14:38;6.47;;;5.97;;
15258;SDS011;34462;51.368;12.364;2023-05-07T12:17:08;6.28;;;5.78;;
15258;SDS011;34462;51.368;12.364;2023-05-07T12:19:38;6.50;;;6.00;;
15258;SDS011;34462;51.368;12.364;2023-05-07T12:22:09;5.97;;;5.47;;
15258;SDS011;34462;51.368;12.364;2023-05-07T12:24:43;6.70;;;6.10;;
15258;SDS011;34462;51.368;12.364;2023-05-07T12:27:14;6.93;;;6.22;;
15258;SDS011;34462;51.368;12.364;2023-05-07T12:29:44;6.40;;;5.85;;
15258;SDS011;34462;51.368;12.364;2023-05-07T12:32:13;7.35;;;6.68;;
15258;SDS011;34462;51.368;12.364;2023-05-07T12:34:43;7.25;;;6.55;;
15258;SDS011;34462;51.368;12.364;2023-05-07T12:37:12;6.90;;;6.35;;
15258;SDS011;34462;51.368;12.364;2023-05-07T12:39:44;7.43;;;6.72;;
15258;SDS011;34462;51.368;12.364;2023-05-07T12:42:16;7.38;;;6.68;;
15258;SDS011;34462;51.368;12.364;2023-05-07T12:44:50;6.30;;;5.80;;
15258;SDS011;34462;51.368;12.364;2023-05-07T12:47:18;6.32;;;5.82;;
15258;SDS011;34462;51.368;12.364;2023-05-07T12:49:48;5.32;;;4.82;;
15258;SDS011;34462;51.368;12.364;2023-05-07T12:52:16;5.85;;;5.35;;
15258;SDS011;34462;51.368;12.364;2023-05-07T12:54:44;5.35;;;4.85;;
15258;SDS011;34462;51.368;12.364;2023-05-07T12:57:12;4.95;;;4.55;;
15258;SDS011;34462;51.368;12.364;2023-05-07T12:59:42;5.30;;;4.72;;
15258;SDS011;34462;51.368;12.364;2023-05-07T13:02:10;5.15;;;4.70;;
15258;SDS011;34462;51.368;12.364;2023-05-07T13:04:38;5.13;;;4.72;;
15258;SDS011;34462;51.368;12.364;2023-05-07T13:07:06;5.93;;;4.90;;
15258;SDS011;34462;51.368;12.364;2023-05-07T13:09:34;5.40;;;5.00;;
15258;SDS011;34462;51.368;12.364;2023-05-07T13:12:03;5.20;;;4.80;;
15258;SDS011;34462;51.368;12.364;2023-05-07T13:14:32;5.20;;;4.80;;
15258;SDS011;34462;51.368;12.364;2023-05-07T13:17:01;5.70;;;5.20;;
15258;SDS011;34462;51.368;12.364;2023-05-07T13:19:30;5.13;;;4.72;;
15258;SDS011;34462;51.368;12.364;2023-05-07T13:21:58;5.20;;;4.70;;
15258;SDS011;34462;51.368;12.364;2023-05-07T13:24:26;5.00;;;4.60;;
15258;SDS011;34462;51.368;12.364;2023-05-07T13:26:54;4.97;;;4.57;;
15258;SDS011;34462;51.368;12.364;2023-05-07T13:29:22;5.40;;;4.55;;
15258;SDS011;34462;51.368;12.364;2023-05-07T13:31:54;4.97;;;4.50;;
15258;SDS011;34462;51.368;12.364;2023-05-07T13:34:25;4.78;;;4.38;;
15258;SDS011;34462;51.368;12.364;2023-05-07T13:36:53;4.60;;;4.20;;
15258;SDS011;34462;51.368;12.364;2023-05-07T13:39:21;4.90;;;4.50;;
15258;SDS011;34462;51.368;12.364;2023-05-07T13:41:49;4.68;;;4.15;;
15258;SDS011;34462;51.368;12.364;2023-05-07T13:44:17;4.70;;;4.30;;
15258;SDS011;34462;51.368;12.364;2023-05-07T13:46:46;5.38;;;4.88;;
15258;SDS011;34462;51.368;12.364;2023-05-07T13:49:17;4.90;;;4.50;;
15258;SDS011;34462;51.368;12.364;2023-05-07T13:51:46;4.70;;;4.30;;
15258;SDS011;34462;51.368;12.364;2023-05-07T13:54:14;4.57;;;4.18;;
15258;SDS011;34462;51.368;12.364;2023-05-07T13:56:43;4.28;;;3.88;;
15258;SDS011;34462;51.368;12.364;2023-05-07T13:59:11;4.10;;;3.80;;
15258;SDS011;34462;51.368;12.364;2023-05-07T14:01:40;4.63;;;4.20;;
15258;SDS011;34462;51.368;12.364;2023-05-07T14:04:08;3.95;;;3.55;;
15258;SDS011;34462;51.368;12.364;2023-05-07T14:06:37;4.40;;;4.00;;
15258;SDS011;34462;51.368;12.364;2023-05-07T14:09:06;4.25;;;3.85;;
15258;SDS011;34462;51.368;12.364;2023-05-07T14:11:34;4.13;;;3.72;;
15258;SDS011;34462;51.368;12.364;2023-05-07T14:14:03;4.05;;;3.70;;
15258;SDS011;34462;51.368;12.364;2023-05-07T14:16:31;4.40;;;4.00;;
15258;SDS011;34462;51.368;12.364;2023-05-07T14:18:59;3.92;;;3.63;;
15258;SDS011;34462;51.368;12.364;2023-05-07T14:21:27;3.85;;;3.42;;
15258;SDS011;34462;51.368;12.364;2023-05-07T14:23:56;4.03;;;3.53;;
15258;SDS011;34462;51.368;12.364;2023-05-07T14:26:27;3.70;;;3.40;;
15258;SDS011;34462;51.368;12.364;2023-05-07T14:28:56;3.90;;;3.40;;
15258;SDS011;34462;51.368;12.364;2023-05-07T14:31:24;3.53;;;3.22;;
15258;SDS011;34462;51.368;12.364;2023-05-07T14:33:53;3.53;;;3.17;;
15258;SDS011;34462;51.368;12.364;2023-05-07T14:36:24;4.60;;;3.30;;
15258;SDS011;34462;51.368;12.364;2023-05-07T14:38:52;3.72;;;3.42;;
15258;SDS011;34462;51.368;12.364;2023-05-07T14:41:21;3.42;;;3.13;;
15258;SDS011;34462;51.368;12.364;2023-05-07T14:43:51;3.50;;;3.20;;
15258;SDS011;34462;51.368;12.364;2023-05-07T14:46:19;3.60;;;3.30;;